Time;durP1;ratioP1;P1;durP2;ratioP2;P2;SDS_P1;SDS_P2;PMS_P1;PMS_P2;Temp;Humidity;BMP_temperature;BMP_pressure;BME280_temperature;BME280_humidity;BME280_pressure;Samples;Min_cycle;Max_cycle;Signal;HPM_P1;HPM_P2
2024/03/22 00:08:14;;;;;;;;;20.75;16.00;;;;;10.36;54.49;100953.06;146621;574;45020;-77
2024/03/22 00:11:44;;;;;;;;;19.25;17.75;;;;;10.68;55.26;101016.19;146617;570;45016;-75
2024/03/22 00:15:44;;;;;;;;;;;;;;;;;;;;;
2024/03/22 00:19:24;;;;;;;;;34.00;29.50;;;;;8.95;56.50;100776.72;146617;615;45914;-77
2024/03/22 00:23:03;;;;;;;;;44.50;36.00;;;;;10.16;56.87;101007.25;146620;590;45020;-79
2024/03/22 00:26:27;;;;;;;;;;;;;;;;;;;;;
2024/03/22 00:29:44;;;;;;;;;33.75;30.00;;;;;10.12;57.73;101006.97;146618;580;45020;-80
2024/03/22 00:37:27;;;;;;;;;17.75;15.00;;;;;10.16;56.95;101015.00;146618;580;45020;-79
2024/03/22 00:45:27;;;;;;;;;;;;;;;;;;;;;
2024/03/22 00:53:02;;;;;;;;;;;;;;;;;;;;;
2024/03/22 00:56:26;;;;;;;;;;;;;;;;;;;;;
2024/03/22 00:59:54;;;;;;;;;22.50;21.00;;;;;9.68;59.56;100993.19;146619;593;45020;-82
2024/03/22 01:03:17;;;;;;;;;22.50;19.50;;;;;9.68;59.92;100981.97;146618;569;45016;-79
2024/03/22 01:07:00;;;;;;;;;24.00;23.00;;;;;8.07;58.04;100695.66;146619;704;46010;-76
2024/03/22 01:10:50;;;;;;;;;18.75;17.00;;;;;9.79;57.96;100980.91;146615;604;45917;-77
2024/03/22 01:14:17;;;;;;;;;17.25;15.75;;;;;9.51;57.17;100911.09;146620;566;45020;-72
2024/03/22 01:17:59;;;;;;;;;12.00;11.25;;;;;10.00;58.14;100978.69;146621;676;45017;-79
2024/03/22 01:21:42;;;;;;;;;11.50;10.75;;;;;9.91;57.48;100960.00;146620;575;45022;-75
2024/03/22 01:29:27;;;;;;;;;;;;;;;;;;;;;
2024/03/22 01:32:32;;;;;;;;;25.00;21.50;;;;;10.14;57.96;100982.03;146617;591;45911;-76
2024/03/22 01:36:34;;;;;;;;;33.75;29.00;;;;;10.16;57.42;100972.66;146620;564;45020;-76
2024/03/22 01:40:14;;;;;;;;;35.25;30.50;;;;;10.17;57.85;100977.03;146618;598;45018;-76
2024/03/22 01:44:10;;;;;;;;;;;;;;;;;;;;;
2024/03/22 01:51:59;;;;;;;;;27.00;22.25;;;;;7.48;58.18;100535.47;146620;564;45020;-75
2024/03/22 01:55:32;;;;;;;;;33.00;28.00;;;;;9.82;58.47;100954.31;146615;624;45020;-79
2024/03/22 01:58:54;;;;;;;;;36.50;31.25;;;;;9.76;58.69;100952.25;146620;672;45020;-79
2024/03/22 02:02:20;;;;;;;;;30.25;26.00;;;;;9.77;58.67;100953.13;146617;563;45020;-73
2024/03/22 02:06:17;;;;;;;;;;;;;;;;;;;;;
2024/03/22 02:09:22;;;;;;;;;22.00;18.50;;;;;9.75;58.54;100952.13;146613;707;49012;-76
2024/03/22 02:12:56;;;;;;;;;26.75;23.50;;;;;9.71;58.45;100951.06;146618;601;45020;-74
2024/03/22 02:16:56;;;;;;;;;;;;;;;;;;;;;
2024/03/22 02:20:46;;;;;;;;;8.50;8.25;;;;;9.49;58.20;100947.22;146620;617;45020;-74
2024/03/22 02:24:55;;;;;;;;;20.25;15.25;;;;;8.40;58.77;100795.00;146625;566;45913;-73
2024/03/22 02:32:06;;;;;;;;;21.25;20.25;;;;;8.71;59.36;100895.06;146615;594;45017;-73
2024/03/22 02:39:28;;;;;;;;;16.25;13.75;;;;;8.92;60.41;100947.22;146617;611;45911;-73
2024/03/22 02:47:10;;;;;;;;;23.25;18.00;;;;;8.96;60.50;100956.94;146617;657;45915;-74
2024/03/22 02:50:56;;;;;;;;;10.50;10.00;;;;;9.02;61.32;100954.72;146621;611;45020;-75
2024/03/22 02:58:23;;;;;;;;;10.75;8.00;;;;;8.97;60.48;100946.72;146651;630;45010;-76
2024/03/22 03:02:05;;;;;;;;;7.25;7.25;;;;;8.93;59.88;100942.13;146649;589;44914;-76
2024/03/22 03:05:48;;;;;;;;;6.25;6.25;;;;;9.04;60.72;100960.00;146653;643;44020;-74
2024/03/22 03:09:20;;;;;;;;;;;;;;;;;;;;;
2024/03/22 03:12:47;;;;;;;;;10.25;9.50;;;;;9.21;60.75;100951.56;146655;600;44020;-72
2024/03/22 03:16:53;;;;;;;;;;;;;;;;;;;;;
2024/03/22 03:20:16;;;;;;;;;9.75;8.00;;;;;9.24;59.68;100946.56;146649;565;44022;-74
2024/03/22 03:24:11;;;;;;;;;11.50;10.00;;;;;9.26;60.16;100950.16;146647;614;44917;-74
2024/03/22 03:28:12;;;;;;;;;;;;;;;;;;;;;
2024/03/22 03:31:45;;;;;;;;;10.00;9.00;;;;;8.64;60.28;100848.97;146642;609;44017;-75
2024/03/22 03:35:35;;;;;;;;;;;;;;;;;;;;;
2024/03/22 03:39:24;;;;;;;;;9.75;9.75;;;;;9.17;59.70;100953.06;146643;625;44915;-80
2024/03/22 03:50:58;;;;;;;;;;;;;;;;;;;;;
2024/03/22 03:54:25;;;;;;;;;10.50;8.00;;;;;9.04;60.43;100972.94;146640;612;45914;-79
2024/03/22 03:58:10;;;;;;;;;;;;;;;;;;;;;
2024/03/22 04:01:39;;;;;;;;;;;;;;;;;;;;;
2024/03/22 04:04:50;;;;;;;;;11.00;7.75;;;;;8.76;61.87;100985.06;146645;587;44020;-79
2024/03/22 04:08:24;;;;;;;;;18.50;18.25;;;;;8.75;62.39;100991.03;146645;632;44915;-79
2024/03/22 04:12:17;;;;;;;;;19.75;19.75;;;;;8.75;60.71;100990.13;146641;626;44020;-75
2024/03/22 04:19:32;;;;;;;;;17.50;16.50;;;;;8.11;61.58;100883.56;146643;587;44020;-75
2024/03/22 04:23:06;;;;;;;;;11.75;10.75;;;;;8.76;61.08;100982.47;146643;576;45910;-73
2024/03/22 04:27:08;;;;;;;;;;;;;;;;;;;;;
2024/03/22 04:31:08;;;;;;;;;;;;;;;;;;;;;
2024/03/22 04:34:55;;;;;;;;;12.25;11.75;;;;;8.87;62.18;101005.50;146652;593;44020;-78
2024/03/22 04:38:31;;;;;;;;;14.75;13.50;;;;;7.79;62.71;100794.62;146641;668;45913;-80
2024/03/22 04:42:15;;;;;;;;;;;;;;;;;;;;;
2024/03/22 04:45:48;;;;;;;;;15.75;12.00;;;;;8.43;60.50;100823.59;146640;636;45915;-74
2024/03/22 04:49:35;;;;;;;;;;;;;;;;;;;;;
2024/03/22 04:53:20;;;;;;;;;85.50;69.25;;;;;9.64;60.52;100985.19;146617;571;46016;-75
2024/03/22 04:57:24;;;;;;;;;61.25;46.25;;;;;9.80;59.99;101002.50;146618;641;45020;-76
2024/03/22 05:00:27;;;;;;;;;35.50;31.25;;;;;10.03;60.48;101021.97;146617;569;45017;-75
2024/03/22 05:11:46;;;;;;;;;15.00;12.75;;;;;11.45;59.49;101032.47;146618;612;46008;-71
2024/03/22 05:14:59;;;;;;;;;25.25;24.25;;;;;12.33;61.70;101036.94;146618;615;45017;-71
2024/03/22 05:19:15;;;;;;;;;;;;;;;;;;;;;
2024/03/22 05:22:51;;;;;;;;;19.00;17.00;;;;;13.88;51.97;101041.50;146617;609;45911;-73
2024/03/22 05:26:35;;;;;;;;;;;;;;;;;;;;;
2024/03/22 05:30:14;;;;;;;;;20.25;18.00;;;;;13.78;51.98;101046.31;146617;628;45912;-74
2024/03/22 05:33:51;;;;;;;;;;;;;;;;;;;;;
2024/03/22 05:37:11;;;;;;;;;19.75;17.00;;;;;13.21;53.19;101074.13;146619;615;45912;-76
2024/03/22 05:40:22;;;;;;;;;11.00;9.50;;;;;12.98;53.49;101073.03;146620;602;45020;-76
2024/03/22 05:44:24;;;;;;;;;12.50;10.00;;;;;12.63;53.48;101056.66;146623;704;45918;-74
2024/03/22 05:48:09;;;;;;;;;;;;;;;;;;;;;
2024/03/22 05:51:44;;;;;;;;;23.25;18.50;;;;;11.87;55.61;100999.19;146616;576;45909;-77
2024/03/22 05:59:07;;;;;;;;;;;;;;;;;;;;;
2024/03/22 06:02:31;;;;;;;;;19.25;17.25;;;;;12.46;57.85;101093.94;146618;588;47012;-75
2024/03/22 06:06:18;;;;;;;;;;;;;;;;;;;;;
2024/03/22 06:10:04;;;;;;;;;;;;;;;;;;;;;
2024/03/22 06:14:18;;;;;;;;;;;;;;;;;;;;;
2024/03/22 06:21:37;;;;;;;;;16.00;12.25;;;;;13.31;59.67;101118.03;146619;576;45020;-78
2024/03/22 06:25:02;;;;;;;;;;;;;;;;;;;;;
2024/03/22 06:28:52;;;;;;;;;;;;;;;;;;;;;
2024/03/22 06:32:39;;;;;;;;;;;;;;;;;;;;;
2024/03/22 06:36:26;;;;;;;;;;;;;;;;;;;;;
2024/03/22 06:40:20;;;;;;;;;;;;;;;;;;;;;
2024/03/22 06:44:02;;;;;;;;;16.00;12.25;;;;;12.97;59.72;101029.63;146618;613;45915;-69
2024/03/22 06:47:23;;;;;;;;;14.50;12.25;;;;;13.42;61.48;101092.47;146620;578;45020;-69
2024/03/22 06:50:31;;;;;;;;;17.00;16.50;;;;;13.69;61.44;101121.47;146617;609;45913;-71
2024/03/22 06:58:30;;;;;;;;;16.75;12.75;;;;;13.30;60.92;101038.13;146638;641;45013;-69
2024/03/22 07:01:59;;;;;;;;;;;;;;;;;;;;;
2024/03/22 07:06:07;;;;;;;;;18.25;14.75;;;;;14.74;59.42;101147.75;146639;571;45915;-69
2024/03/22 07:09:20;;;;;;;;;20.25;19.00;;;;;15.05;58.10;101146.41;146633;573;44020;-69
2024/03/22 07:13:24;;;;;;;;;22.00;18.25;;;;;14.51;56.77;101001.56;146638;565;44017;-69
2024/03/22 07:17:12;;;;;;;;;17.75;16.50;;;;;15.42;55.43;101149.59;146640;569;44020;-70
2024/03/22 07:21:05;;;;;;;;;;;;;;;;;;;;;
2024/03/22 07:25:09;;;;;;;;;;;;;;;;;;;;;
2024/03/22 07:36:32;;;;;;;;;;;;;;;;;;;;;
2024/03/22 07:40:20;;;;;;;;;;;;;;;;;;;;;
2024/03/22 07:44:28;;;;;;;;;;;;;;;;;;;;;
2024/03/22 07:48:17;;;;;;;;;;;;;;;;;;;;;
2024/03/22 07:56:07;;;;;;;;;16.00;15.25;;;;;13.52;56.09;101023.44;146620;570;45021;-67
2024/03/22 07:59:35;;;;;;;;;;;;;;;;;;;;;
2024/03/22 08:03:08;;;;;;;;;19.50;17.75;;;;;13.61;55.79;101029.03;146615;582;45021;-70
2024/03/22 08:06:57;;;;;;;;;;;;;;;;;;;;;
2024/03/22 08:10:42;;;;;;;;;;;;;;;;;;;;;
2024/03/22 08:14:32;;;;;;;;;;;;;;;;;;;;;
2024/03/22 08:17:57;;;;;;;;;14.00;13.75;;;;;15.28;55.50;101221.31;146613;603;46020;-68
2024/03/22 08:21:23;;;;;;;;;18.50;16.25;;;;;14.88;55.19;101138.75;146611;563;45913;-68
2024/03/22 08:25:31;;;;;;;;;;;;;;;;;;;;;
2024/03/22 08:33:13;;;;;;;;;22.25;19.50;;;;;15.22;60.20;101223.69;146614;612;47020;-68
2024/03/22 08:37:11;;;;;;;;;24.00;21.25;;;;;14.03;58.72;101049.97;146612;632;45916;-73
2024/03/22 08:40:48;;;;;;;;;;;;;;;;;;;;;
2024/03/22 08:44:15;;;;;;;;;23.00;21.25;;;;;13.90;60.46;101058.09;146616;570;45913;-74
2024/03/22 08:52:06;;;;;;;;;20.50;17.25;;;;;15.05;59.41;101233.47;146612;563;45916;-71
2024/03/22 08:59:37;;;;;;;;;18.75;14.25;;;;;15.42;56.58;101248.00;146614;571;45914;-74
2024/03/22 09:03:03;;;;;;;;;;;;;;;;;;;;;
2024/03/22 09:06:52;;;;;;;;;18.25;15.50;;;;;15.27;56.99;101236.94;146613;573;45915;-73
2024/03/22 09:10:26;;;;;;;;;15.50;14.00;;;;;15.25;55.75;101237.75;146615;633;45021;-74
2024/03/22 09:13:54;;;;;;;;;14.25;13.25;;;;;13.16;55.12;100839.56;146612;615;45911;-73
2024/03/22 09:17:30;;;;;;;;;10.50;10.50;;;;;15.72;53.86;101237.88;146623;637;45020;-73
2024/03/22 09:21:32;;;;;;;;;;;;;;;;;;;;;
2024/03/22 09:25:24;;;;;;;;;13.00;11.50;;;;;14.79;51.16;100899.09;146617;572;45020;-74
2024/03/22 09:28:56;;;;;;;;;13.25;11.50;;;;;14.78;52.12;100880.78;146611;631;45916;-72
2024/03/22 09:32:52;;;;;;;;;;;;;;;;;;;;;
2024/03/22 09:36:35;;;;;;;;;;;;;;;;;;;;;
2024/03/22 09:43:25;;;;;;;;;11.00;10.00;;;;;16.61;51.08;101233.31;146617;636;45911;-70
2024/03/22 09:47:27;;;;;;;;;;;;;;;;;;;;;
2024/03/22 09:51:03;;;;;;;;;9.00;8.75;;;;;16.07;51.75;101231.34;146621;571;45915;-73
2024/03/22 09:54:48;;;;;;;;;13.00;10.75;;;;;13.86;52.05;100864.16;146628;567;45020;-72
2024/03/22 09:58:24;;;;;;;;;11.25;10.25;;;;;13.92;52.41;100874.84;146617;628;45914;-73
2024/03/22 10:02:36;;;;;;;;;10.75;8.75;;;;;16.13;52.25;101242.06;146620;564;45020;-72
2024/03/22 10:06:14;;;;;;;;;7.25;5.25;;;;;16.39;51.95;101253.50;146622;579;45913;-72
2024/03/22 10:09:51;;;;;;;;;8.25;7.50;;;;;14.95;50.84;100939.75;146629;670;46010;-78
2024/03/22 10:13:44;;;;;;;;;8.25;7.25;;;;;17.01;51.18;101234.69;146621;569;45913;-73
2024/03/22 10:17:32;;;;;;;;;;;;;;;;;;;;;
2024/03/22 10:21:28;;;;;;;;;;;;;;;;;;;;;
2024/03/22 10:25:12;;;;;;;;;8.00;7.25;;;;;16.56;49.90;101251.47;146626;595;45022;-73
2024/03/22 10:28:30;;;;;;;;;8.25;6.00;;;;;16.36;48.79;101248.13;146629;589;45911;-71
2024/03/22 10:31:58;;;;;;;;;6.50;6.50;;;;;16.14;50.44;101245.59;146629;570;45021;-73
2024/03/22 10:36:07;;;;;;;;;;;;;;;;;;;;;
2024/03/22 10:39:59;;;;;;;;;;;;;;;;;;;;;
2024/03/22 10:44:12;;;;;;;;;5.75;5.00;;;;;14.63;50.15;100875.00;146627;645;45016;-73
2024/03/22 10:52:20;;;;;;;;;7.50;6.00;;;;;15.02;49.38;101016.59;146624;674;45911;-75
2024/03/22 10:56:05;;;;;;;;;9.75;6.00;;;;;15.01;49.54;100991.28;146614;617;45021;-73
2024/03/22 11:04:11;;;;;;;;;;;;;;;;;;;;;
2024/03/22 11:15:38;;;;;;;;;7.75;5.50;;;;;16.07;51.81;101217.41;146626;719;45911;-73
2024/03/22 11:19:31;;;;;;;;;;;;;;;;;;;;;
2024/03/22 11:23:19;;;;;;;;;;;;;;;;;;;;;
2024/03/22 11:27:27;;;;;;;;;;;;;;;;;;;;;
2024/03/22 11:31:24;;;;;;;;;;;;;;;;;;;;;
2024/03/22 11:34:43;;;;;;;;;;;;;;;;;;;;;
2024/03/22 11:39:03;;;;;;;;;;;;;;;;;;;;;
2024/03/22 11:42:25;;;;;;;;;4.75;4.00;;;;;18.33;47.69;101212.50;146629;588;45022;-74
2024/03/22 11:46:27;;;;;;;;;;;;;;;;;;;;;
2024/03/22 11:50:26;;;;;;;;;8.00;7.00;;;;;18.26;47.73;101208.81;146629;572;45022;-73
2024/03/22 11:53:57;;;;;;;;;6.50;5.00;;;;;16.14;47.24;100863.63;146644;630;44016;-76
2024/03/22 11:58:10;;;;;;;;;5.75;5.75;;;;;15.76;47.89;100839.75;146642;677;44020;-73
2024/03/22 12:01:58;;;;;;;;;4.75;4.75;;;;;16.06;47.70;100881.69;146640;660;44916;-74
2024/03/22 12:05:24;;;;;;;;;5.25;5.25;;;;;18.15;47.84;101204.97;146643;697;44020;-74
2024/03/22 12:08:43;;;;;;;;;;;;;;;;;;;;;
2024/03/22 12:12:37;;;;;;;;;8.75;6.50;;;;;18.58;45.93;101203.53;146641;645;44020;-75
2024/03/22 12:20:26;;;;;;;;;7.75;6.75;;;;;15.92;46.56;100880.38;146645;651;44020;-72
2024/03/22 12:24:21;;;;;;;;;29.00;26.25;;;;;17.88;47.63;101207.69;146639;578;45913;-73
2024/03/22 12:27:47;;;;;;;;;5.00;5.00;;;;;18.10;46.29;101204.88;146707;569;45014;-73
2024/03/22 12:31:03;;;;;;;;;6.50;4.75;;;;;18.33;45.20;101205.50;146627;603;46941;-75
2024/03/22 12:34:45;;;;;;;;;5.00;5.00;;;;;18.41;46.15;101193.47;146636;668;45020;-73
2024/03/22 12:38:34;;;;;;;;;7.75;6.75;;;;;18.49;47.16;101198.03;146629;706;45915;-74
2024/03/22 12:42:20;;;;;;;;;6.50;5.25;;;;;18.51;44.59;101206.84;146635;601;45021;-75
2024/03/22 12:46:14;;;;;;;;;8.00;5.75;;;;;18.27;45.66;101189.56;146631;565;45018;-73
2024/03/22 12:49:57;;;;;;;;;6.00;5.00;;;;;17.97;45.45;101185.28;146632;586;48010;-76
2024/03/22 12:57:43;;;;;;;;;6.00;6.00;;;;;18.03;44.96;101173.16;146636;577;45021;-74
2024/03/22 13:01:45;;;;;;;;;;;;;;;;;;;;;
2024/03/22 13:10:03;;;;;;;;;5.00;5.00;;;;;17.24;48.12;101169.91;146630;596;45018;-74
2024/03/22 13:13:38;;;;;;;;;6.25;5.75;;;;;17.27;47.39;101206.72;146636;652;45023;-74
2024/03/22 13:17:29;;;;;;;;;5.00;5.00;;;;;16.45;48.99;101089.62;146631;571;45016;-73
2024/03/22 13:21:08;;;;;;;;;3.50;3.50;;;;;15.52;49.20;100977.47;146636;664;45021;-73
2024/03/22 13:24:54;;;;;;;;;6.25;5.00;;;;;15.66;49.18;101052.00;146631;578;45018;-74
2024/03/22 13:28:30;;;;;;;;;8.00;7.00;;;;;16.29;50.69;101187.66;146653;714;44021;-72
2024/03/22 13:32:07;;;;;;;;;15.75;14.25;;;;;16.13;50.16;101176.66;146648;563;45912;-73
2024/03/22 13:35:42;;;;;;;;;5.00;5.00;;;;;14.61;50.77;100921.94;146649;575;44021;-74
2024/03/22 13:39:38;;;;;;;;;5.00;5.00;;;;;14.18;50.24;100843.72;146648;646;46016;-76
2024/03/22 13:51:00;;;;;;;;;;;;;;;;;;;;;
2024/03/22 13:54:31;;;;;;;;;12.50;12.50;;;;;16.27;47.04;101176.28;146641;595;44016;-71
2024/03/22 13:58:11;;;;;;;;;17.50;15.25;;;;;14.30;47.19;100839.84;146644;730;44021;-73
2024/03/22 14:01:45;;;;;;;;;5.50;4.25;;;;;16.25;46.08;101176.19;146645;655;45909;-73
2024/03/22 14:05:43;;;;;;;;;;;;;;;;;;;;;
2024/03/22 14:09:53;;;;;;;;;;;;;;;;;;;;;
2024/03/22 14:13:20;;;;;;;;;7.25;5.50;;;;;14.74;46.61;101012.03;146652;646;44021;-74
2024/03/22 14:16:39;;;;;;;;;7.75;7.25;;;;;15.44;45.82;101186.22;146649;649;46016;-73
2024/03/22 14:20:24;;;;;;;;;6.25;5.25;;;;;15.14;46.86;101192.06;146651;577;45023;-72
2024/03/22 14:24:02;;;;;;;;;;;;;;;;;;;;;
2024/03/22 14:27:46;;;;;;;;;6.75;6.00;;;;;14.91;48.22;101192.81;146634;566;45021;-73
2024/03/22 14:32:09;;;;;;;;;;;;;;;;;;;;;
2024/03/22 14:39:36;;;;;;;;;5.00;5.00;;;;;14.83;46.01;101191.59;146628;661;45912;-78
2024/03/22 14:42:44;;;;;;;;;5.25;5.25;;;;;14.79;47.26;101188.88;146626;621;45021;-73
2024/03/22 14:46:24;;;;;;;;;;;;;;;;;;;;;
2024/03/22 14:49:53;;;;;;;;;6.75;4.00;;;;;14.80;47.77;101181.94;146633;625;45021;-75
2024/03/22 14:53:30;;;;;;;;;;;;;;;;;;;;;
2024/03/22 14:56:46;;;;;;;;;6.25;6.25;;;;;12.69;48.97;100830.59;146633;705;45021;-79
2024/03/22 14:59:55;;;;;;;;;5.50;4.75;;;;;14.71;49.05;101190.28;146628;599;45016;-73
2024/03/22 15:03:51;;;;;;;;;5.00;4.25;;;;;14.77;49.38;101185.31;146633;582;45020;-73
2024/03/22 15:11:09;;;;;;;;;4.00;4.00;;;;;14.61;50.21;101187.22;146629;574;45023;-72
2024/03/22 15:14:34;;;;;;;;;7.75;6.00;;;;;14.53;49.98;101190.41;146625;579;45908;-75
2024/03/22 15:18:19;;;;;;;;;7.75;6.50;;;;;14.46;49.74;101201.38;146634;683;45020;-72
2024/03/22 15:22:11;;;;;;;;;9.50;7.25;;;;;12.21;49.34;100845.78;146629;583;45016;-73
2024/03/22 15:25:32;;;;;;;;;8.75;7.75;;;;;14.25;49.72;101203.03;146630;608;45020;-73
2024/03/22 15:29:08;;;;;;;;;;;;;;;;;;;;;
2024/03/22 15:32:39;;;;;;;;;6.00;5.00;;;;;12.28;48.29;100861.66;146631;576;45022;-73
2024/03/22 15:40:08;;;;;;;;;7.00;5.00;;;;;11.78;46.72;100781.34;146634;601;45020;-74
2024/03/22 15:43:53;;;;;;;;;5.25;5.25;;;;;12.69;46.43;100950.28;146625;627;45911;-73
2024/03/22 15:47:56;;;;;;;;;;;;;;;;;;;;;
2024/03/22 15:52:04;;;;;;;;;4.75;4.75;;;;;14.21;46.32;101214.19;146627;644;45915;-72
2024/03/22 15:55:48;;;;;;;;;6.25;4.00;;;;;12.01;45.35;100837.00;146630;581;45021;-73
2024/03/22 15:59:32;;;;;;;;;8.00;7.00;;;;;14.19;44.62;101219.31;146631;563;45016;-74
2024/03/22 16:02:47;;;;;;;;;9.50;7.00;;;;;14.18;45.44;101219.25;146629;599;45021;-75
2024/03/22 16:06:34;;;;;;;;;4.75;3.00;;;;;14.13;43.42;101234.69;146631;613;45016;-74
2024/03/22 16:10:40;;;;;;;;;3.50;3.50;;;;;12.61;43.83;100985.44;146631;620;45020;-73
2024/03/22 16:14:44;;;;;;;;;;;;;;;;;;;;;
2024/03/22 16:18:32;;;;;;;;;4.00;4.00;;;;;12.07;44.46;100909.19;146629;572;45023;-74
2024/03/22 16:21:51;;;;;;;;;6.75;6.00;;;;;13.84;45.65;101221.22;146627;605;46012;-73
2024/03/22 16:25:34;;;;;;;;;5.00;5.00;;;;;11.48;45.90;100832.69;146634;587;45020;-73
2024/03/22 16:28:51;;;;;;;;;6.25;5.25;;;;;13.68;45.79;101228.28;146630;569;45018;-73
2024/03/22 16:33:06;;;;;;;;;;;;;;;;;;;;;
2024/03/22 16:36:43;;;;;;;;;7.50;6.75;;;;;11.43;46.56;100848.84;146625;606;45018;-72
2024/03/22 16:41:00;;;;;;;;;10.25;9.25;;;;;11.30;46.61;100832.66;146628;591;45021;-74
2024/03/22 16:44:56;;;;;;;;;11.75;8.50;;;;;11.26;48.57;100840.25;146630;621;45018;-73
2024/03/22 16:48:34;;;;;;;;;7.00;6.25;;;;;12.05;50.74;100996.59;146634;569;45023;-71
2024/03/22 16:51:42;;;;;;;;;6.75;6.00;;;;;13.30;51.72;101230.84;146631;596;45018;-72
2024/03/22 16:55:40;;;;;;;;;5.50;5.00;;;;;10.85;51.54;100811.38;146630;596;46035;-73
2024/03/22 17:03:02;;;;;;;;;;;;;;;;;;;;;
2024/03/22 17:06:47;;;;;;;;;8.25;6.00;;;;;13.20;53.63;101230.28;146630;643;45911;-73
2024/03/22 17:10:44;;;;;;;;;5.25;4.00;;;;;11.06;53.07;100865.19;146632;581;45021;-75
2024/03/22 17:14:32;;;;;;;;;;;;;;;;;;;;;
2024/03/22 17:18:13;;;;;;;;;12.00;10.50;;;;;13.10;55.08;101247.16;146628;570;45021;-75
2024/03/22 17:21:51;;;;;;;;;;;;;;;;;;;;;
2024/03/22 17:25:27;;;;;;;;;;;;;;;;;;;;;
2024/03/22 17:29:12;;;;;;;;;7.00;7.00;;;;;12.97;54.35;101255.19;146625;611;45911;-73
2024/03/22 17:36:22;;;;;;;;;10.50;9.00;;;;;12.89;56.99;101262.59;146624;618;46012;-72
2024/03/22 17:40:02;;;;;;;;;12.75;9.00;;;;;12.68;55.88;101234.69;146635;566;45021;-71
2024/03/22 17:43:51;;;;;;;;;;;;;;;;;;;;;
2024/03/22 17:47:17;;;;;;;;;11.00;6.50;;;;;11.74;57.31;101098.03;146636;580;45020;-72
2024/03/22 17:58:44;;;;;;;;;;;;;;;;;;;;;
2024/03/22 18:02:39;;;;;;;;;;;;;;;;;;;;;
2024/03/22 18:06:06;;;;;;;;;13.50;10.75;;;;;12.66;59.01;101288.34;146631;584;45912;-74
2024/03/22 18:09:51;;;;;;;;;6.50;6.50;;;;;12.62;59.62;101289.00;146628;570;45020;-74
2024/03/22 18:13:31;;;;;;;;;10.75;7.75;;;;;12.40;57.40;101270.50;146632;575;45018;-72
2024/03/22 18:21:49;;;;;;;;;;;;;;;;;;;;;
2024/03/22 18:25:49;;;;;;;;;;;;;;;;;;;;;
2024/03/22 18:29:38;;;;;;;;;11.25;10.00;;;;;10.37;58.71;100960.94;146631;638;45911;-71
2024/03/22 18:33:19;;;;;;;;;10.25;8.00;;;;;11.99;58.53;101240.59;146641;632;44021;-71
2024/03/22 18:36:55;;;;;;;;;6.00;6.00;;;;;12.31;58.60;101298.63;146652;589;45910;-71
2024/03/22 18:41:04;;;;;;;;;8.50;7.00;;;;;11.77;57.45;101203.03;146652;607;44021;-71
2024/03/22 18:44:40;;;;;;;;;8.00;8.00;;;;;12.34;58.63;101302.28;146648;647;45913;-71
2024/03/22 18:48:42;;;;;;;;;;;;;;;;;;;;;
2024/03/22 18:51:58;;;;;;;;;11.75;11.75;;;;;12.33;58.68;101302.19;146646;640;45018;-72
2024/03/22 18:55:34;;;;;;;;;8.75;8.75;;;;;11.14;57.39;101096.56;146643;576;44021;-72
2024/03/22 18:59:03;;;;;;;;;;;;;;;;;;;;;
2024/03/22 19:03:06;;;;;;;;;9.25;8.00;;;;;11.24;57.40;101119.59;146655;564;44023;-72
2024/03/22 19:06:43;;;;;;;;;8.50;5.00;;;;;11.24;56.50;101129.97;146651;670;45911;-73
2024/03/22 19:10:30;;;;;;;;;8.00;6.25;;;;;10.86;56.42;101062.19;146649;595;44023;-72
2024/03/22 19:13:53;;;;;;;;;;;;;;;;;;;;;
2024/03/22 19:17:42;;;;;;;;;5.00;3.00;;;;;10.44;56.21;101001.06;146651;613;44023;-72
2024/03/22 19:21:56;;;;;;;;;2.25;2.25;;;;;12.20;56.40;101309.31;146645;601;45917;-72
2024/03/22 19:25:37;;;;;;;;;16.50;15.00;;;;;12.28;56.59;101329.66;146650;611;44023;-71
2024/03/22 19:29:42;;;;;;;;;3.25;3.25;;;;;12.21;56.06;101324.13;146642;599;45914;-71
2024/03/22 19:33:41;;;;;;;;;;;;;;;;;;;;;
2024/03/22 19:37:54;;;;;;;;;7.25;5.50;;;;;11.88;55.72;101252.12;146624;576;45913;-71
2024/03/22 19:41:21;;;;;;;;;38.50;32.75;;;;;12.43;56.25;101336.59;146628;704;45020;-72
2024/03/22 19:44:58;;;;;;;;;11.75;11.50;;;;;12.46;56.17;101341.94;146616;570;45915;-71
2024/03/22 19:48:51;;;;;;;;;;;;;;;;;;;;;
2024/03/22 19:56:38;;;;;;;;;9.00;9.00;;;;;12.13;54.99;101312.41;146633;625;45020;-71
2024/03/22 20:00:26;;;;;;;;;;;;;;;;;;;;;
2024/03/22 20:04:34;;;;;;;;;13.00;12.00;;;;;11.22;54.69;101147.19;146629;583;45020;-71
2024/03/22 20:08:28;;;;;;;;;19.50;18.00;;;;;12.38;55.09;101358.84;146618;586;45016;-72
2024/03/22 20:12:08;;;;;;;;;3.75;3.75;;;;;12.16;55.03;101322.97;146626;570;45020;-72
2024/03/22 20:19:47;;;;;;;;;9.50;9.00;;;;;12.29;55.37;101353.13;146631;575;45020;-72
2024/03/22 20:23:36;;;;;;;;;6.75;5.00;;;;;12.20;55.00;101347.44;146626;614;45017;-71
2024/03/22 20:27:52;;;;;;;;;5.25;4.50;;;;;11.13;54.57;101159.66;146628;622;45022;-72
2024/03/22 20:31:05;;;;;;;;;12.00;10.00;;;;;12.26;55.40;101368.56;146627;600;45016;-71
2024/03/22 20:35:10;;;;;;;;;;;;;;;;;;;;;
2024/03/22 20:39:06;;;;;;;;;3.00;3.00;;;;;11.14;54.80;101177.00;146627;567;45916;-73
2024/03/22 20:42:38;;;;;;;;;13.00;10.00;;;;;12.20;54.75;101376.94;146631;652;45020;-71
2024/03/22 20:46:11;;;;;;;;;5.00;5.00;;;;;11.56;55.11;101274.59;146622;651;45913;-73
2024/03/22 20:50:12;;;;;;;;;12.75;11.00;;;;;10.12;54.87;101035.47;146629;564;45020;-71
2024/03/22 20:57:28;;;;;;;;;4.00;3.00;;;;;9.47;55.69;100986.78;146631;570;45022;-71
2024/03/22 21:01:21;;;;;;;;;;;;;;;;;;;;;
2024/03/22 21:05:01;;;;;;;;;8.50;6.25;;;;;10.03;55.81;101160.22;146631;571;45022;-70
2024/03/22 21:08:40;;;;;;;;;10.00;8.50;;;;;9.73;56.20;101125.56;146626;590;46013;-72
2024/03/22 21:12:10;;;;;;;;;7.50;6.75;;;;;9.51;56.26;101125.94;146626;598;45022;-71
2024/03/22 21:15:56;;;;;;;;;;;;;;;;;;;;;
2024/03/22 21:19:31;;;;;;;;;;;;;;;;;;;;;
2024/03/22 21:23:09;;;;;;;;;4.75;4.00;;;;;8.60;56.37;101044.34;146628;622;45913;-71
2024/03/22 21:27:03;;;;;;;;;7.75;6.00;;;;;9.16;56.28;101176.37;146632;596;45022;-72
2024/03/22 21:35:11;;;;;;;;;12.75;11.75;;;;;8.13;55.50;100994.72;146628;573;45022;-70
2024/03/22 21:39:07;;;;;;;;;;;;;;;;;;;;;
2024/03/22 21:42:41;;;;;;;;;;;;;;;;;;;;;
2024/03/22 21:46:19;;;;;;;;;35.00;29.25;;;;;8.46;55.51;101047.72;146616;674;45913;-72
2024/03/22 21:50:15;;;;;;;;;48.50;36.00;;;;;8.03;55.39;100962.22;146619;577;45020;-70
2024/03/22 21:54:18;;;;;;;;;;;;;;;;;;;;;
2024/03/22 21:57:55;;;;;;;;;;;;;;;;;;;;;
2024/03/22 22:02:09;;;;;;;;;77.00;61.50;;;;;8.40;54.99;101058.53;146615;588;46016;-71
2024/03/22 22:05:43;;;;;;;;;19.75;16.00;;;;;7.55;54.31;100940.16;146620;590;45020;-72
2024/03/22 22:09:21;;;;;;;;;;;;;;;;;;;;;
2024/03/22 22:12:37;;;;;;;;;26.00;23.75;;;;;7.83;55.00;100985.06;146620;614;45020;-71
2024/03/22 22:17:10;;;;;;;;;;;;;;;;;;;;;
2024/03/22 22:20:36;;;;;;;;;24.75;20.25;;;;;8.64;55.05;101134.22;146620;590;45020;-73
2024/03/22 22:27:39;;;;;;;;;10.75;8.00;;;;;8.46;52.82;101120.97;146632;612;45020;-81
2024/03/22 22:31:06;;;;;;;;;9.00;8.00;;;;;8.06;53.08;101070.91;146628;584;45915;-80
2024/03/22 22:34:18;;;;;;;;;9.75;8.00;;;;;8.09;52.68;101095.25;146632;691;45020;-76
2024/03/22 22:39:05;;;;;;;;;;;;;;;;;;;;;
2024/03/22 22:42:51;;;;;;;;;;;;;;;;;;;;;
2024/03/22 22:46:39;;;;;;;;;;;;;;;;;;;;;
2024/03/22 22:50:33;;;;;;;;;9.25;8.00;;;;;9.48;52.67;101375.16;146631;565;45022;-76
2024/03/22 22:54:32;;;;;;;;;5.25;5.25;;;;;7.94;52.42;101075.25;146627;586;45911;-74
2024/03/22 22:57:56;;;;;;;;;8.00;8.00;;;;;8.17;52.51;101110.38;146634;581;45020;-73
2024/03/22 23:01:12;;;;;;;;;22.25;19.25;;;;;8.28;52.63;101119.72;146625;607;45912;-73
2024/03/22 23:04:41;;;;;;;;;20.75;19.00;;;;;9.69;52.71;101335.94;146621;615;45020;-72
2024/03/22 23:12:04;;;;;;;;;15.00;14.50;;;;;8.81;52.19;101161.16;146619;649;46013;-75
2024/03/22 23:19:35;;;;;;;;;15.75;14.50;;;;;7.69;52.09;100944.53;146620;566;46010;-75
2024/03/22 23:22:51;;;;;;;;;16.50;16.50;;;;;7.67;52.68;100947.81;146616;599;45913;-76
2024/03/22 23:26:57;;;;;;;;;;;;;;;;;;;;;
2024/03/22 23:30:18;;;;;;;;;15.25;13.50;;;;;8.56;53.23;101131.09;146617;570;45913;-71
2024/03/22 23:33:50;;;;;;;;;13.50;10.50;;;;;8.49;52.87;101104.78;146617;578;46020;-71
2024/03/22 23:37:02;;;;;;;;;15.50;14.00;;;;;8.40;52.87;101101.59;146617;646;45903;-71
2024/03/22 23:40:20;;;;;;;;;11.00;9.00;;;;;9.56;53.10;101313.50;146623;578;45020;-72
2024/03/22 23:43:31;;;;;;;;;;;;;;;;;;;;;